Time;durP1;ratioP1;P1;durP2;ratioP2;P2;SDS_P1;SDS_P2;PMS_P1;PMS_P2;Temp;Humidity;BMP_temperature;BMP_pressure;BME280_temperature;BME280_humidity;BME280_pressure;Samples;Min_cycle;Max_cycle;Signal;HPM_P1;HPM_P2
2021/01/17 00:00:55;;;;;;;31.50;19.63;;;;;;;-4.78;84.38;98606.84;119224;1151;65150;-79
2021/01/17 00:03:22;;;;;;;38.37;20.83;;;;;;;-4.74;85.13;98615.45;119003;1151;65229;-79
2021/01/17 00:05:49;;;;;;;39.03;22.63;;;;;;;-4.74;84.47;98616.34;119236;1151;65115;-80
2021/01/17 00:08:18;;;;;;;27.07;17.10;;;;;;;-4.72;84.37;98619.77;119304;1149;65121;-78
2021/01/17 00:10:44;;;;;;;34.37;19.50;;;;;;;-4.72;85.20;98608.51;119243;1150;65145;-78
2021/01/17 00:13:11;;;;;;;34.47;18.60;;;;;;;-4.70;85.36;98615.41;118988;1150;65156;-78
2021/01/17 00:15:38;;;;;;;30.20;18.35;;;;;;;-4.67;84.68;98614.52;119001;1151;65154;-78
2021/01/17 00:18:06;;;;;;;32.80;18.25;;;;;;;-4.68;84.52;98612.81;118988;1150;65242;-78
2021/01/17 00:20:33;;;;;;;30.27;17.90;;;;;;;-4.68;84.82;98608.46;119218;1150;65149;-78
2021/01/17 00:23:04;;;;;;;31.80;17.97;;;;;;;-4.66;84.60;98608.42;119247;1151;65089;-78
2021/01/17 00:25:32;;;;;;;31.13;19.70;;;;;;;-4.65;84.57;98598.02;119193;1150;65227;-78
2021/01/17 00:27:59;;;;;;;27.95;16.20;;;;;;;-4.60;84.64;98597.97;118975;1150;65153;-78
2021/01/17 00:30:31;;;;;;;34.10;21.50;;;;;;;-4.58;84.78;98601.42;119238;1151;65084;-78
2021/01/17 00:33:00;;;;;;;36.40;18.93;;;;;;;-4.58;84.60;98595.33;119268;1150;65007;-78
2021/01/17 00:35:29;;;;;;;54.33;30.60;;;;;;;-4.58;84.42;98595.33;119080;1151;65226;-78
2021/01/17 00:37:59;;;;;;;35.30;20.07;;;;;;;-4.58;85.03;98606.62;119047;1151;65212;-79
2021/01/17 00:40:27;;;;;;;32.67;18.43;;;;;;;-4.57;85.08;98597.07;119261;1150;64999;-79
2021/01/17 00:42:54;;;;;;;34.85;19.30;;;;;;;-4.56;85.22;98599.63;119072;1149;65143;-80
2021/01/17 00:45:24;;;;;;;32.93;18.67;;;;;;;-4.53;85.45;98598.73;119289;1150;65223;-80
2021/01/17 00:47:51;;;;;;;29.90;19.23;;;;;;;-4.53;84.89;98596.14;119248;1150;65038;-80
2021/01/17 00:50:19;;;;;;;29.70;17.77;;;;;;;-4.51;84.92;98595.23;119220;1150;65191;-80
2021/01/17 00:52:51;;;;;;;34.90;18.47;;;;;;;-4.48;85.67;98596.94;119357;1150;65124;-79
2021/01/17 00:55:17;;;;;;;35.13;18.70;;;;;;;-4.46;85.31;98587.38;119304;1150;65108;-78
2021/01/17 00:57:44;;;;;;;38.47;20.03;;;;;;;-4.44;86.00;98586.48;118982;1150;65121;-78
2021/01/17 01:00:13;;;;;;;26.57;15.60;;;;;;;-4.42;87.13;98589.93;119228;1150;65121;-78
2021/01/17 01:02:41;;;;;;;33.07;16.67;;;;;;;-4.41;87.65;98589.03;119239;1151;65223;-78
2021/01/17 01:05:08;;;;;;;25.97;14.20;;;;;;;-4.38;87.67;98634.95;119244;1150;65123;-77
2021/01/17 01:07:35;;;;;;;13.83;8.50;;;;;;;-4.39;86.76;98635.84;119225;1150;65226;-76
2021/01/17 01:10:09;;;;;;;7.97;5.00;;;;;;;-4.66;85.86;98647.42;119240;1151;65150;-77
2021/01/17 01:12:36;;;;;;;7.37;4.53;;;;;;;-4.86;85.94;98653.71;119188;1150;65126;-78
2021/01/17 01:15:07;;;;;;;5.65;3.60;;;;;;;-4.99;85.10;98646.06;118965;1150;65150;-77
2021/01/17 01:17:34;;;;;;;8.37;4.70;;;;;;;-5.12;85.26;98653.97;119222;1150;65147;-77
2021/01/17 01:20:02;;;;;;;9.95;5.80;;;;;;;-5.18;85.30;98656.64;119235;1150;65147;-78
2021/01/17 01:22:29;;;;;;;11.40;6.27;;;;;;;-5.22;85.01;98651.48;119312;1150;65064;-77
2021/01/17 01:24:55;;;;;;;7.45;4.70;;;;;;;-5.30;83.31;98664.53;119219;1150;65140;-77
2021/01/17 01:27:21;;;;;;;12.23;5.77;;;;;;;-5.42;83.00;98657.72;119240;1150;65255;-78
2021/01/17 01:29:48;;;;;;;8.55;6.40;;;;;;;-5.47;83.63;98662.09;119229;1150;65136;-77
2021/01/17 01:32:14;;;;;;;10.47;5.40;;;;;;;-5.53;83.23;98654.33;119229;1150;65121;-77
2021/01/17 01:34:41;;;;;;;8.80;5.60;;;;;;;-5.57;83.32;98660.44;119264;1151;65104;-77
2021/01/17 01:37:07;;;;;;;7.67;5.70;;;;;;;-5.62;82.40;98657.86;119246;1151;65120;-77
2021/01/17 01:39:34;;;;;;;8.95;5.80;;;;;;;-5.66;82.48;98650.10;119218;1150;65194;-77
2021/01/17 01:42:06;;;;;;;10.65;5.50;;;;;;;-5.70;81.86;98649.28;119221;1150;65121;-77
2021/01/17 01:44:34;;;;;;;9.30;5.67;;;;;;;-5.75;82.39;98653.64;119258;1151;65223;-78
2021/01/17 01:47:02;;;;;;;12.43;7.20;;;;;;;-5.79;83.12;98658.00;119294;1150;65086;-78
2021/01/17 01:49:30;;;;;;;9.87;6.07;;;;;;;-5.79;82.99;98657.14;119264;1150;65156;-78
2021/01/17 01:52:00;;;;;;;9.73;6.63;;;;;;;-5.82;82.17;98658.03;119237;1150;65132;-77
2021/01/17 01:54:26;;;;;;;12.63;7.03;;;;;;;-5.84;82.91;98661.50;119252;1150;65067;-78
2021/01/17 01:56:54;;;;;;;12.47;6.47;;;;;;;-5.85;82.30;98663.21;119225;1151;65551;-78
2021/01/17 01:59:21;;;;;;;14.57;8.13;;;;;;;-5.85;82.25;98657.17;119262;1150;65552;-78
2021/01/17 02:01:49;;;;;;;15.67;8.03;;;;;;;-5.87;82.70;98656.31;119227;1150;65117;-78
2021/01/17 02:04:16;;;;;;;13.03;8.93;;;;;;;-5.87;82.32;98664.09;119150;1151;65124;-78
2021/01/17 02:07:19;;;;;;;12.10;9.03;;;;;;;-5.85;83.18;98662.36;118693;1150;65118;-78
2021/01/17 02:09:46;;;;;;;15.40;9.05;;;;;;;-5.84;82.39;98656.31;119216;1150;65126;-78
2021/01/17 02:12:27;;;;;;;14.40;8.83;;;;;;;-5.86;82.53;98661.50;119181;1150;65136;-78
2021/01/17 02:15:21;;;;;;;15.87;9.77;;;;;;;-5.89;82.62;98671.91;119190;1150;65101;-78
2021/01/17 02:17:50;;;;;;;18.05;10.80;;;;;;;-5.90;82.91;98671.90;119239;1150;65278;-78
2021/01/17 02:20:24;;;;;;;19.03;11.37;;;;;;;-5.92;82.34;98678.83;119076;1150;65149;-78
2021/01/17 02:23:00;;;;;;;14.23;10.17;;;;;;;-5.90;82.56;98679.69;119181;1151;65056;-78
2021/01/17 02:25:34;;;;;;;17.37;11.03;;;;;;;-5.86;83.08;98677.06;119282;1151;65129;-78
2021/01/17 02:28:05;;;;;;;12.85;6.90;;;;;;;-5.80;82.73;98671.83;119254;1150;65140;-79
2021/01/17 02:30:35;;;;;;;12.50;6.50;;;;;;;-5.83;82.09;98682.23;118942;1151;65184;-78
2021/01/17 02:33:22;;;;;;;9.97;7.00;;;;;;;-5.87;82.11;98671.88;118605;1151;65006;-77
2021/01/17 02:35:57;;;;;;;9.40;6.10;;;;;;;-5.88;81.54;98683.99;118607;1151;65133;-76
2021/01/17 02:38:35;;;;;;;13.20;7.25;;;;;;;-5.90;81.58;98693.52;118995;1151;65165;-78
2021/01/17 02:41:21;;;;;;;13.20;6.75;;;;;;;-5.95;81.43;98687.52;119180;1151;65150;-78
2021/01/17 02:43:48;;;;;;;12.93;7.27;;;;;;;-5.93;80.81;98695.30;119223;1151;65123;-78
2021/01/17 02:46:15;;;;;;;13.27;7.27;;;;;;;-6.02;80.59;98691.90;119225;1150;65131;-78
2021/01/17 02:48:41;;;;;;;14.00;7.83;;;;;;;-6.13;80.72;98692.80;119224;1150;65130;-80
2021/01/17 02:51:08;;;;;;;13.17;7.17;;;;;;;-6.22;80.10;98701.50;118990;1151;65131;-77
2021/01/17 02:53:45;;;;;;;13.50;7.47;;;;;;;-6.37;79.47;98702.45;119238;1150;65082;-78
2021/01/17 02:56:18;;;;;;;11.83;6.10;;;;;;;-6.44;79.50;98705.92;119226;1150;65628;-78
2021/01/17 02:58:53;;;;;;;11.63;6.23;;;;;;;-6.55;77.95;98708.55;119007;1151;65063;-77
2021/01/17 03:01:29;;;;;;;11.57;6.27;;;;;;;-6.69;78.54;98721.56;119254;1150;65123;-80
2021/01/17 03:04:13;;;;;;;13.00;7.23;;;;;;;-6.78;78.02;98716.38;119016;1151;65226;-78
2021/01/17 03:06:43;;;;;;;12.10;6.93;;;;;;;-6.85;77.88;98727.61;119201;1151;65054;-77
2021/01/17 03:09:10;;;;;;;7.22;4.70;;;;;;;-6.96;77.36;98724.18;119241;1150;65101;-78
2021/01/17 03:11:37;;;;;;;13.57;6.33;;;;;;;-7.06;77.45;98731.09;119205;1150;65101;-78
2021/01/17 03:14:06;;;;;;;11.80;6.27;;;;;;;-7.07;77.90;98727.64;119205;1150;65117;-79
2021/01/17 03:16:34;;;;;;;11.90;7.22;;;;;;;-7.08;77.79;98738.88;119250;1151;65060;-79
2021/01/17 03:19:01;;;;;;;14.00;6.73;;;;;;;-7.08;78.35;98738.88;119232;1151;65595;-79
2021/01/17 03:21:27;;;;;;;11.80;6.60;;;;;;;-7.13;77.21;98737.16;119208;1150;65219;-79
2021/01/17 03:23:53;;;;;;;11.43;6.03;;;;;;;-7.18;77.58;98744.92;119037;1151;65172;-79
2021/01/17 03:26:20;;;;;;;11.78;6.40;;;;;;;-7.22;77.79;98750.09;118992;1151;65227;-78
2021/01/17 03:28:46;;;;;;;13.00;6.75;;;;;;;-7.26;76.83;98745.79;119027;1150;65183;-80
2021/01/17 03:31:13;;;;;;;12.93;7.50;;;;;;;-7.30;77.37;98745.77;118519;1151;65114;-80
2021/01/17 03:33:39;;;;;;;11.45;6.95;;;;;;;-7.36;78.07;98748.36;118733;1151;65153;-79
2021/01/17 03:36:05;;;;;;;13.10;8.23;;;;;;;-7.41;76.97;98751.81;118685;1151;65156;-79
2021/01/17 03:38:32;;;;;;;14.47;7.33;;;;;;;-7.46;76.88;98750.94;119004;1150;65217;-79
2021/01/17 03:40:58;;;;;;;10.87;6.77;;;;;;;-7.58;76.49;98755.25;119017;1151;65121;-79
2021/01/17 03:43:25;;;;;;;11.80;6.83;;;;;;;-7.72;76.20;98757.78;119017;1151;65260;-78
2021/01/17 03:45:51;;;;;;;11.33;7.80;;;;;;;-7.80;76.50;98756.05;119189;1150;65209;-77
2021/01/17 03:48:18;;;;;;;10.73;7.17;;;;;;;-7.89;77.13;98756.89;119226;1150;65140;-80
2021/01/17 03:50:44;;;;;;;12.57;8.47;;;;;;;-7.97;77.16;98771.53;118969;1151;65194;-79
2021/01/17 03:53:10;;;;;;;9.93;6.60;;;;;;;-8.11;76.58;98774.03;119227;1150;65194;-79
2021/01/17 03:55:37;;;;;;;12.37;8.63;;;;;;;-8.22;76.50;98778.30;119205;1151;65121;-79
2021/01/17 03:58:03;;;;;;;14.13;8.43;;;;;;;-8.28;76.93;98786.04;118988;1151;65097;-78
2021/01/17 04:00:29;;;;;;;13.60;7.93;;;;;;;-8.38;77.03;98782.53;118623;1151;65118;-78
2021/01/17 04:02:56;;;;;;;13.53;8.70;;;;;;;-8.50;77.55;98785.11;118980;1151;65130;-78
2021/01/17 04:05:22;;;;;;;13.95;9.65;;;;;;;-8.61;77.07;98779.84;119028;1151;65096;-78
2021/01/17 04:07:49;;;;;;;17.13;9.77;;;;;;;-8.66;77.16;98782.43;118991;1150;65143;-78
2021/01/17 04:10:15;;;;;;;14.00;8.47;;;;;;;-8.74;77.94;98789.27;118839;1151;65132;-78
2021/01/17 04:12:41;;;;;;;19.27;8.67;;;;;;;-8.78;77.36;98792.67;118997;1150;65096;-78
2021/01/17 04:15:09;;;;;;;16.83;9.60;;;;;;;-8.86;77.45;98789.17;119285;1151;65123;-78
2021/01/17 04:17:35;;;;;;;16.60;9.03;;;;;;;-8.94;77.14;98791.69;119239;1150;65069;-79
2021/01/17 04:20:03;;;;;;;15.63;9.30;;;;;;;-8.99;77.40;98788.21;118893;1150;65127;-79
2021/01/17 04:22:30;;;;;;;16.27;10.07;;;;;;;-9.02;77.17;98792.50;119227;1150;65146;-79
2021/01/17 04:24:56;;;;;;;17.67;10.20;;;;;;;-9.07;77.87;98798.47;119226;1150;65105;-78
2021/01/17 04:27:23;;;;;;;18.27;11.10;;;;;;;-9.11;77.44;98799.31;119240;1150;65168;-78
2021/01/17 04:29:49;;;;;;;20.30;12.07;;;;;;;-9.12;77.27;98805.31;118733;1150;65092;-78
2021/01/17 04:32:16;;;;;;;25.60;15.03;;;;;;;-9.12;77.59;98810.47;119114;1150;65229;-79
2021/01/17 04:34:42;;;;;;;23.65;13.40;;;;;;;-9.08;77.86;98811.39;118983;1151;65211;-79
2021/01/17 04:37:08;;;;;;;51.87;23.50;;;;;;;-9.09;78.26;98805.33;119221;1150;65136;-79
2021/01/17 04:39:35;;;;;;;39.50;18.20;;;;;;;-9.06;77.84;98810.55;119113;1151;65150;-79
2021/01/17 04:42:02;;;;;;;52.90;24.50;;;;;;;-9.05;77.88;98806.24;118522;1151;65207;-79
2021/01/17 04:44:34;;;;;;;60.60;25.35;;;;;;;-9.06;77.81;98814.81;118516;1151;65263;-80
2021/01/17 04:47:03;;;;;;;54.95;24.45;;;;;;;-9.10;77.51;98816.52;118634;1150;65146;-77
2021/01/17 04:49:36;;;;;;;70.33;29.30;;;;;;;-9.14;77.33;98824.22;118743;1150;65129;-77
2021/01/17 04:52:07;;;;;;;103.90;38.50;;;;;;;-9.15;77.86;98828.52;118570;1151;65161;-78
2021/01/17 04:54:33;;;;;;;86.70;38.13;;;;;;;-9.07;77.67;98834.61;118670;1151;65101;-78
2021/01/17 04:57:22;;;;;;;60.70;27.73;;;;;;;-9.05;78.37;98832.06;119150;1150;65121;-78
2021/01/17 05:00:04;;;;;;;;;;;;;;;-9.03;77.72;98835.49;119096;1151;65203;-79
2021/01/17 05:02:33;;;;;;;43.67;21.20;;;;;;;-8.98;78.05;98848.45;119232;1151;65146;-78
2021/01/17 05:05:15;;;;;;;54.13;24.90;;;;;;;-8.94;77.64;98842.47;119255;1151;65215;-78
2021/01/17 05:08:08;;;;;;;55.47;28.00;;;;;;;-9.01;77.73;98844.13;119210;1150;65120;-78
2021/01/17 05:10:39;;;;;;;39.50;20.60;;;;;;;-9.12;77.60;98849.19;119205;1151;65258;-78
2021/01/17 05:13:17;;;;;;;33.00;17.63;;;;;;;-9.15;77.99;98856.91;119260;1150;65220;-78
2021/01/17 05:15:45;;;;;;;42.25;22.60;;;;;;;-9.14;78.24;98860.35;118978;1151;65130;-79
2021/01/17 05:18:11;;;;;;;28.40;16.63;;;;;;;-9.11;77.83;98868.12;119277;1150;65120;-78
2021/01/17 05:20:38;;;;;;;25.73;15.77;;;;;;;-9.12;77.49;98872.42;119019;1151;65216;-79
2021/01/17 05:23:09;;;;;;;26.75;15.15;;;;;;;-9.15;78.35;98869.81;119093;1151;65227;-78
2021/01/17 05:25:36;;;;;;;24.75;15.40;;;;;;;-9.14;77.44;98873.25;119064;1151;65629;-76
2021/01/17 05:28:03;;;;;;;24.23;15.30;;;;;;;-9.19;77.45;98873.20;119070;1150;65187;-75
2021/01/17 05:30:29;;;;;;;43.10;23.40;;;;;;;-9.26;77.60;98878.32;118708;1149;65067;-80
2021/01/17 05:32:55;;;;;;;29.50;16.50;;;;;;;-9.29;78.44;98892.05;118961;1151;65213;-80
2021/01/17 05:35:24;;;;;;;26.85;17.50;;;;;;;-9.28;77.93;98888.61;118982;1151;65263;-80
2021/01/17 05:37:54;;;;;;;31.63;16.93;;;;;;;-9.30;77.69;98890.30;119274;1151;65132;-80
2021/01/17 05:40:22;;;;;;;31.43;19.80;;;;;;;-9.34;78.20;98892.00;119258;1150;65120;-78
2021/01/17 05:42:49;;;;;;;33.83;20.77;;;;;;;-9.35;78.03;98892.83;119022;1151;65204;-79
2021/01/17 05:45:17;;;;;;;40.57;22.40;;;;;;;-9.41;77.87;98889.33;119260;1151;65149;-78
2021/01/17 05:48:01;;;;;;;32.25;19.10;;;;;;;-9.51;77.65;98891.79;119212;1151;65228;-78
2021/01/17 05:50:30;;;;;;;29.50;18.05;;;;;;;-9.55;78.57;98897.78;119277;1150;65123;-79
2021/01/17 05:53:00;;;;;;;;;;;;;;;-9.48;78.29;98900.42;119022;1151;65121;-79
2021/01/17 05:55:34;;;;;;;30.70;16.40;;;;;;;-9.48;78.22;98908.16;119125;1150;65132;-80
2021/01/17 05:58:19;;;;;;;27.17;15.57;;;;;;;-9.52;78.60;98902.97;119238;1150;65146;-81
2021/01/17 06:00:45;;;;;;;25.77;15.63;;;;;;;-9.49;77.95;98902.14;119219;1151;65207;-78
2021/01/17 06:03:16;;;;;;;25.73;16.20;;;;;;;-9.46;78.81;98903.89;119199;1150;65118;-78
2021/01/17 06:05:47;;;;;;;26.43;14.93;;;;;;;-9.42;78.22;98903.95;119023;1150;65239;-78
2021/01/17 06:08:18;;;;;;;28.37;16.77;;;;;;;-9.47;78.73;98918.51;119269;1151;65041;-78
2021/01/17 06:10:47;;;;;;;22.27;14.30;;;;;;;-9.48;78.00;98916.76;119246;1150;65200;-79
2021/01/17 06:13:24;;;;;;;29.20;16.57;;;;;;;-9.51;78.02;98920.16;119225;1150;65207;-79
2021/01/17 06:15:52;;;;;;;29.63;17.03;;;;;;;-9.53;78.00;98920.99;119054;1151;65162;-80
2021/01/17 06:18:21;;;;;;;27.27;16.87;;;;;;;-9.57;78.03;98935.58;119167;1151;65124;-81
2021/01/17 06:20:56;;;;;;;33.73;20.15;;;;;;;-9.69;77.64;98930.26;119321;1150;65557;-80
2021/01/17 06:23:24;;;;;;;36.75;19.45;;;;;;;-9.84;77.54;98935.24;119297;1151;65137;-80
2021/01/17 06:26:06;;;;;;;33.33;20.60;;;;;;;-9.97;76.71;98932.48;119340;1150;65345;-80
2021/01/17 06:28:41;;;;;;;33.73;20.20;;;;;;;-10.07;76.48;98938.36;119023;1151;65223;-79
2021/01/17 06:31:09;;;;;;;39.73;22.60;;;;;;;-10.17;77.08;98933.91;118635;1149;65124;-79
2021/01/17 06:33:36;;;;;;;33.97;19.47;;;;;;;-10.28;76.94;98949.24;119129;1151;65124;-78
2021/01/17 06:36:14;;;;;;;35.37;22.23;;;;;;;-10.32;77.11;98946.59;119217;1150;65527;-78
2021/01/17 06:38:44;;;;;;;39.37;21.93;;;;;;;-10.42;76.96;98951.61;119250;1151;65101;-78
2021/01/17 06:41:11;;;;;;;;;;;;;;;-10.56;76.19;98955.66;119269;1150;65228;-79
2021/01/17 06:43:42;;;;;;;38.90;20.80;;;;;;;-10.66;76.27;98970.11;119214;1150;65659;-78
2021/01/17 06:46:13;;;;;;;39.83;22.00;;;;;;;-10.74;76.55;98969.11;119237;1151;65120;-78
2021/01/17 06:48:39;;;;;;;48.57;26.53;;;;;;;-10.87;76.22;98972.31;119256;1151;65146;-79
2021/01/17 06:51:20;;;;;;;57.17;29.10;;;;;;;-10.83;76.62;98981.80;119183;1150;65197;-80
2021/01/17 06:53:54;;;;;;;47.20;24.60;;;;;;;-10.79;76.80;98990.44;119294;1151;65196;-78
2021/01/17 06:56:22;;;;;;;44.17;24.27;;;;;;;-10.67;77.21;98986.38;119204;1151;65101;-80
2021/01/17 06:58:51;;;;;;;54.30;27.13;;;;;;;-10.57;76.47;98989.13;119244;1150;65047;-80
2021/01/17 07:01:27;;;;;;;51.37;24.87;;;;;;;-10.54;75.97;98992.61;119226;1151;65124;-78
2021/01/17 07:04:15;;;;;;;58.13;30.17;;;;;;;-10.55;76.21;98988.31;119001;1151;65214;-79
2021/01/17 07:06:57;;;;;;;57.63;29.97;;;;;;;-10.58;75.30;98997.67;119219;1150;65095;-79
2021/01/17 07:09:47;;;;;;;54.40;26.65;;;;;;;-10.53;76.54;99001.20;119245;1150;65123;-79
2021/01/17 07:12:55;;;;;;;91.27;40.03;;;;;;;-10.41;76.15;99011.71;119178;1151;65162;-79
2021/01/17 07:15:25;;;;;;;59.43;27.47;;;;;;;-10.33;75.87;99002.40;118998;1150;65097;-79
2021/01/17 07:18:12;;;;;;;78.33;38.73;;;;;;;-10.30;75.42;99011.89;119236;1150;65280;-79
2021/01/17 07:20:46;;;;;;;123.90;50.70;;;;;;;-10.27;75.67;99020.48;119229;1151;65124;-79
2021/01/17 07:23:15;;;;;;;103.63;44.27;;;;;;;-10.23;75.35;99031.73;119023;1150;65130;-79
2021/01/17 07:25:44;;;;;;;121.17;46.20;;;;;;;-10.24;74.97;99022.25;119262;1151;65104;-79
2021/01/17 07:28:13;;;;;;;99.87;44.97;;;;;;;-10.21;75.13;99019.75;119051;1151;65231;-79
2021/01/17 07:30:44;;;;;;;94.45;40.05;;;;;;;-10.13;74.96;99028.47;119276;1150;65124;-80
2021/01/17 07:33:12;;;;;;;83.70;38.67;;;;;;;-10.08;74.92;99029.41;119267;1150;65130;-79
2021/01/17 07:35:43;;;;;;;76.20;38.07;;;;;;;-10.06;74.66;99034.57;119070;1151;65221;-79
2021/01/17 07:38:13;;;;;;;74.50;36.70;;;;;;;-10.06;74.93;99039.72;119227;1151;65133;-80
2021/01/17 07:40:49;;;;;;;76.40;38.63;;;;;;;-9.98;74.84;99035.55;118994;1151;65161;-78
2021/01/17 07:43:28;;;;;;;73.60;36.70;;;;;;;-9.88;74.56;99034.00;119230;1150;65277;-80
2021/01/17 07:45:57;;;;;;;82.60;42.87;;;;;;;-9.74;74.86;99033.37;119322;1151;65069;-80
2021/01/17 07:48:24;;;;;;;97.67;47.48;;;;;;;-9.57;74.07;99030.16;119263;1149;65101;-80
2021/01/17 07:50:53;;;;;;;104.85;49.55;;;;;;;-9.46;73.72;99036.31;119201;1150;65152;-81
2021/01/17 07:53:37;;;;;;;90.42;47.50;;;;;;;-9.38;74.00;99034.70;118991;1150;65101;-79
2021/01/17 07:56:26;;;;;;;86.53;45.43;;;;;;;-9.26;74.05;99030.57;118777;1151;65217;-81
2021/01/17 07:58:56;;;;;;;99.67;52.87;;;;;;;-9.24;74.17;99037.48;119223;1151;65127;-79
2021/01/17 08:01:37;;;;;;;102.87;53.77;;;;;;;-9.17;74.09;99038.41;119038;1151;65102;-81
2021/01/17 08:04:04;;;;;;;115.30;56.83;;;;;;;-9.11;74.08;99041.06;119237;1150;65106;-80
2021/01/17 08:06:34;;;;;;;93.80;50.23;;;;;;;-9.05;73.74;99046.32;119232;1150;65499;-80
2021/01/17 08:09:04;;;;;;;85.03;49.03;;;;;;;-9.00;74.14;99047.24;119217;1151;65127;-80
2021/01/17 08:11:46;;;;;;;;;;;;;;;-8.92;73.53;99050.78;119324;1150;65117;-81
2021/01/17 08:14:26;;;;;;;75.50;41.73;;;;;;;-8.79;74.12;99049.20;119018;1150;65136;-79
2021/01/17 08:17:14;;;;;;;75.00;44.80;;;;;;;-8.76;73.47;99066.45;118998;1151;65129;-81
2021/01/17 08:19:58;;;;;;;76.30;44.15;;;;;;;-8.62;74.00;99064.88;119319;1150;65134;-81
2021/01/17 08:22:24;;;;;;;87.53;53.33;;;;;;;-8.31;73.87;99060.00;119013;1151;65458;-79
2021/01/17 08:24:59;;;;;;;111.20;62.57;;;;;;;-7.93;74.03;99062.90;119237;1150;65216;-81
2021/01/17 08:27:32;;;;;;;140.57;67.00;;;;;;;-7.60;73.31;99064.88;119318;1151;65152;-79
2021/01/17 08:30:08;;;;;;;161.00;76.55;;;;;;;-7.26;73.18;99062.50;119065;1151;65226;-79
2021/01/17 08:32:45;;;;;;;159.03;76.67;;;;;;;-6.98;73.68;99067.80;119311;1150;65124;-79
2021/01/17 08:35:18;;;;;;;186.80;77.93;;;;;;;-6.77;73.12;99065.30;119239;1151;65066;-80
2021/01/17 08:37:54;;;;;;;154.27;69.63;;;;;;;-6.65;72.66;99075.72;119305;1150;65124;-79
2021/01/17 08:40:29;;;;;;;87.37;47.37;;;;;;;-6.46;72.14;99075.77;119233;1150;65117;-79
2021/01/17 08:42:57;;;;;;;73.17;44.13;;;;;;;-6.26;72.59;99074.09;118920;1151;65121;-81
2021/01/17 08:45:23;;;;;;;67.47;41.00;;;;;;;-6.08;72.58;99075.85;118972;1150;65134;-81
2021/01/17 08:47:52;;;;;;;49.70;32.55;;;;;;;-5.83;72.53;99076.67;119102;1151;65281;-80
2021/01/17 08:50:37;;;;;;;73.10;47.60;;;;;;;-5.61;71.72;99081.86;119349;1150;65132;-80
2021/01/17 08:53:12;;;;;;;78.33;48.47;;;;;;;-5.43;72.35;99086.17;119424;1150;65113;-82
2021/01/17 08:55:41;;;;;;;81.57;47.63;;;;;;;-5.24;72.06;99082.70;119420;1150;65107;-91
2021/01/17 08:58:09;;;;;;;58.37;35.80;;;;;;;-5.15;70.79;99076.61;119335;1151;65041;-90
2021/01/17 09:00:51;;;;;;;51.07;31.93;;;;;;;-4.95;71.41;99084.33;119083;1151;65242;-86
2021/01/17 09:03:30;;;;;;;47.93;27.43;;;;;;;-4.81;71.40;99079.97;119766;1150;65057;-92
2021/01/17 09:06:01;;;;;;;28.80;18.95;;;;;;;-4.62;70.65;99082.48;119056;1150;65170;-85
2021/01/17 09:08:29;;;;;;;34.07;21.93;;;;;;;-4.49;70.97;99086.76;119215;1150;65116;-87
2021/01/17 09:10:57;;;;;;;35.87;23.57;;;;;;;-4.36;70.65;99085.81;119300;1151;65129;-94
2021/01/17 09:18:34;;;;;;;25.00;17.30;;;;;;;-4.42;69.78;99102.33;119537;1151;65129;-78
2021/01/17 09:21:01;;;;;;;30.57;18.77;;;;;;;-4.41;69.88;99100.59;119131;1151;65124;-80
2021/01/17 09:23:28;;;;;;;35.05;21.10;;;;;;;-4.39;69.62;99100.59;119486;1150;65022;-86
2021/01/17 09:26:00;;;;;;;40.25;24.15;;;;;;;-4.30;69.31;99105.73;119194;1150;65273;-88
2021/01/17 09:28:28;;;;;;;44.13;26.67;;;;;;;-4.47;68.76;99109.28;119428;1151;65107;-89
2021/01/17 09:30:56;;;;;;;29.83;19.50;;;;;;;-4.73;67.74;99113.73;119151;1151;65223;-83
2021/01/17 09:33:24;;;;;;;21.93;13.67;;;;;;;-4.99;67.16;99108.61;119394;1150;65094;-83
2021/01/17 09:35:51;;;;;;;20.83;14.10;;;;;;;-5.27;67.32;99118.19;118972;1151;65143;-80
2021/01/17 09:38:20;;;;;;;23.47;13.40;;;;;;;-5.38;68.66;99118.20;118990;1151;65136;-78
2021/01/17 09:40:57;;;;;;;29.67;15.60;;;;;;;-5.40;68.93;99123.38;119099;1151;65242;-77
2021/01/17 09:43:24;;;;;;;29.73;17.47;;;;;;;-5.51;68.02;99125.98;119232;1151;65561;-80
2021/01/17 09:45:53;;;;;;;39.83;21.37;;;;;;;-5.56;68.25;99124.27;119223;1150;65547;-81
2021/01/17 09:48:21;;;;;;;68.27;30.80;;;;;;;-5.45;68.50;99132.94;119308;1150;65153;-79
2021/01/17 09:50:50;;;;;;;50.10;21.80;;;;;;;-5.18;68.39;99138.97;119014;1151;65248;-78
2021/01/17 09:53:18;;;;;;;28.32;16.87;;;;;;;-4.92;66.94;99134.58;119034;1150;65053;-79
2021/01/17 09:55:46;;;;;;;23.40;13.77;;;;;;;-4.75;66.99;99137.13;119123;1151;65117;-78
2021/01/17 09:58:15;;;;;;;39.70;18.75;;;;;;;-4.63;66.52;99138.83;118770;1151;65151;-87
2021/01/17 10:00:43;;;;;;;28.20;15.05;;;;;;;-4.71;65.61;99128.45;119326;1150;65147;-90
2021/01/17 10:05:40;;;;;;;26.75;14.75;;;;;;;-4.96;66.75;99131.98;119389;1150;65102;-93
2021/01/17 10:08:08;;;;;;;23.53;12.70;;;;;;;-4.98;66.56;99139.78;119023;1150;65161;-83
2021/01/17 10:10:39;;;;;;;19.97;12.67;;;;;;;-4.88;67.29;99141.48;119242;1150;65034;-86
2021/01/17 10:13:07;;;;;;;25.13;16.00;;;;;;;-4.73;66.77;99137.98;119291;1150;65197;-84
2021/01/17 10:15:35;;;;;;;21.87;11.80;;;;;;;-4.67;67.16;99145.76;119312;1150;65175;-84
2021/01/17 10:18:02;;;;;;;19.23;13.03;;;;;;;-4.62;66.57;99150.95;119075;1150;65226;-86
2021/01/17 10:20:31;;;;;;;20.00;13.45;;;;;;;-4.50;66.00;99144.83;119322;1150;65118;-84
2021/01/17 10:23:09;;;;;;;26.00;14.57;;;;;;;-4.66;65.81;99150.11;119352;1150;65101;-84
2021/01/17 10:25:37;;;;;;;25.57;14.70;;;;;;;-4.84;66.08;99147.56;119107;1151;65105;-83
2021/01/17 10:28:08;;;;;;;28.27;15.37;;;;;;;-4.86;67.02;99155.35;119338;1150;65191;-84
2021/01/17 10:30:38;;;;;;;30.00;17.75;;;;;;;-4.78;66.13;99155.33;118762;1150;65135;-84
2021/01/17 10:33:04;;;;;;;24.30;15.20;;;;;;;-4.94;66.01;99154.51;119119;1151;65097;-84
2021/01/17 10:35:44;;;;;;;25.43;14.70;;;;;;;-4.82;66.43;99166.59;119250;1151;65102;-85
2021/01/17 10:38:12;;;;;;;30.60;16.27;;;;;;;-4.81;66.08;99157.95;119103;1150;65429;-85
2021/01/17 10:40:40;;;;;;;31.13;18.33;;;;;;;-4.72;66.07;99157.05;119265;1150;65197;-86
2021/01/17 10:43:10;;;;;;;33.23;18.57;;;;;;;-4.68;66.57;99157.05;118919;1150;65146;-83
2021/01/17 10:45:40;;;;;;;37.93;20.60;;;;;;;-4.71;65.20;99151.00;119072;1151;65193;-84
2021/01/17 10:48:16;;;;;;;30.57;19.47;;;;;;;-4.89;65.69;99155.37;119058;1151;65199;-86
2021/01/17 10:50:53;;;;;;;36.50;20.73;;;;;;;-4.92;66.00;99152.78;119070;1150;65175;-85
2021/01/17 10:53:35;;;;;;;36.05;19.70;;;;;;;-4.98;65.96;99151.91;119304;1150;65095;-85
2021/01/17 10:56:02;;;;;;;40.03;22.37;;;;;;;-5.03;66.02;99154.51;119301;1151;65128;-84
2021/01/17 10:58:39;;;;;;;38.57;19.83;;;;;;;-5.11;64.80;99161.45;119271;1151;65198;-85
2021/01/17 11:01:06;;;;;;;38.20;20.43;;;;;;;-5.19;65.51;99158.00;119275;1151;65105;-85
2021/01/17 11:03:40;;;;;;;37.83;20.80;;;;;;;-5.12;66.32;99151.94;119270;1150;65114;-85
2021/01/17 11:06:15;;;;;;;41.60;23.03;;;;;;;-5.05;65.98;99163.17;118945;1150;65149;-86
2021/01/17 11:08:46;;;;;;;40.33;23.13;;;;;;;-4.97;66.02;99167.52;119130;1151;65150;-84
2021/01/17 11:11:14;;;;;;;39.37;21.67;;;;;;;-4.92;66.34;99162.31;119237;1151;65147;-85
2021/01/17 11:13:42;;;;;;;30.77;18.83;;;;;;;-4.89;65.28;99164.91;118882;1151;65132;-84
2021/01/17 11:16:09;;;;;;;31.43;18.93;;;;;;;-4.98;66.25;99165.77;119040;1151;65193;-84
2021/01/17 11:18:37;;;;;;;31.93;19.27;;;;;;;-4.99;65.89;99165.78;118987;1151;65245;-84
2021/01/17 11:21:05;;;;;;;33.53;20.17;;;;;;;-5.10;65.39;99160.61;119069;1151;65127;-84
2021/01/17 11:23:32;;;;;;;37.13;21.47;;;;;;;-5.20;65.43;99159.74;119009;1151;65168;-84
2021/01/17 11:26:02;;;;;;;38.33;22.53;;;;;;;-5.19;65.78;99163.20;119165;1151;65233;-84
2021/01/17 11:28:31;;;;;;;53.90;29.75;;;;;;;-5.34;65.07;99161.50;119031;1151;65110;-84
2021/01/17 11:31:12;;;;;;;48.23;26.83;;;;;;;-5.39;66.68;99160.63;119039;1151;65592;-83
2021/01/17 11:33:38;;;;;;;48.80;25.37;;;;;;;-5.20;67.15;99166.67;119234;1150;65136;-85
2021/01/17 11:36:05;;;;;;;46.80;26.37;;;;;;;-5.10;66.15;99165.80;118994;1151;65213;-85